LKCV weather

Čáslav Air Base
Čáslav, Central Bohemian Region, Czech Republic

Public forecast

Using degrees Celsius for public forecast. Weather courtesy of forecast.io.

Current aviation weather report (METAR) for Čáslav Air Base

Retrieved 2019/12/10 21:00 UTC (15 minutes ago):

LKCV 102100Z 11002KT 9999 SCT032 M02/M04 Q1025 NOSIG

Aviation forecast (TAF) for Čáslav Air Base

Retrieved 2019/12/10 18:00 UTC (3 hours ago):

TAF LKCV 101700Z 1018/1118 VRB02KT CAVOK PROB30 1103/1108 3000 BR NSC BECMG 1106/1108 13008KT